sensor_id;sensor_type;location;lat;lon;timestamp;P1;durP1;ratioP1;P2;durP2;ratioP2
15155;SDS011;7678;50.058;8.306;2023-06-26T00:00:09;5.67;;;5.07;;
15155;SDS011;7678;50.058;8.306;2023-06-26T00:02:39;6.87;;;5.17;;
15155;SDS011;7678;50.058;8.306;2023-06-26T00:05:07;6.13;;;5.50;;
15155;SDS011;7678;50.058;8.306;2023-06-26T00:07:37;7.17;;;4.90;;
15155;SDS011;7678;50.058;8.306;2023-06-26T00:10:06;6.10;;;5.50;;
15155;SDS011;7678;50.058;8.306;2023-06-26T00:12:34;6.90;;;5.20;;
15155;SDS011;7678;50.058;8.306;2023-06-26T00:15:03;6.00;;;5.40;;
15155;SDS011;7678;50.058;8.306;2023-06-26T00:17:31;5.70;;;4.80;;
15155;SDS011;7678;50.058;8.306;2023-06-26T00:20:03;6.37;;;5.20;;
15155;SDS011;7678;50.058;8.306;2023-06-26T00:22:33;6.53;;;4.87;;
15155;SDS011;7678;50.058;8.306;2023-06-26T00:25:02;5.90;;;5.20;;
15155;SDS011;7678;50.058;8.306;2023-06-26T00:27:31;6.07;;;5.23;;
15155;SDS011;7678;50.058;8.306;2023-06-26T00:29:59;6.10;;;5.50;;
15155;SDS011;7678;50.058;8.306;2023-06-26T00:32:28;5.40;;;4.90;;
15155;SDS011;7678;50.058;8.306;2023-06-26T00:34:56;5.97;;;4.80;;
15155;SDS011;7678;50.058;8.306;2023-06-26T00:37:25;8.00;;;5.53;;
15155;SDS011;7678;50.058;8.306;2023-06-26T00:39:53;5.97;;;5.37;;
15155;SDS011;7678;50.058;8.306;2023-06-26T00:42:23;6.53;;;5.13;;
15155;SDS011;7678;50.058;8.306;2023-06-26T00:44:51;5.57;;;5.07;;
15155;SDS011;7678;50.058;8.306;2023-06-26T00:47:19;6.20;;;5.60;;
15155;SDS011;7678;50.058;8.306;2023-06-26T00:49:47;5.90;;;5.23;;
15155;SDS011;7678;50.058;8.306;2023-06-26T00:52:16;8.43;;;5.73;;
15155;SDS011;7678;50.058;8.306;2023-06-26T00:54:45;7.33;;;6.63;;
15155;SDS011;7678;50.058;8.306;2023-06-26T00:57:14;8.37;;;5.77;;
15155;SDS011;7678;50.058;8.306;2023-06-26T00:59:43;6.50;;;5.50;;
15155;SDS011;7678;50.058;8.306;2023-06-26T01:02:12;5.77;;;5.17;;
15155;SDS011;7678;50.058;8.306;2023-06-26T01:04:43;5.90;;;5.30;;
15155;SDS011;7678;50.058;8.306;2023-06-26T01:07:13;6.00;;;5.40;;
15155;SDS011;7678;50.058;8.306;2023-06-26T01:09:42;6.50;;;5.57;;
15155;SDS011;7678;50.058;8.306;2023-06-26T01:12:10;5.80;;;5.07;;
15155;SDS011;7678;50.058;8.306;2023-06-26T01:14:38;6.07;;;5.47;;
15155;SDS011;7678;50.058;8.306;2023-06-26T01:17:08;6.07;;;5.47;;
15155;SDS011;7678;50.058;8.306;2023-06-26T01:19:40;7.30;;;5.40;;
15155;SDS011;7678;50.058;8.306;2023-06-26T01:22:10;6.27;;;5.50;;
15155;SDS011;7678;50.058;8.306;2023-06-26T01:25:02;5.97;;;5.40;;
15155;SDS011;7678;50.058;8.306;2023-06-26T01:27:46;7.03;;;5.40;;
15155;SDS011;7678;50.058;8.306;2023-06-26T01:30:16;6.10;;;5.50;;
15155;SDS011;7678;50.058;8.306;2023-06-26T01:32:48;6.93;;;5.20;;
15155;SDS011;7678;50.058;8.306;2023-06-26T01:35:17;5.97;;;5.37;;
15155;SDS011;7678;50.058;8.306;2023-06-26T01:37:46;6.00;;;5.40;;
15155;SDS011;7678;50.058;8.306;2023-06-26T01:40:14;8.00;;;5.23;;
15155;SDS011;7678;50.058;8.306;2023-06-26T01:42:42;7.33;;;5.80;;
15155;SDS011;7678;50.058;8.306;2023-06-26T01:45:13;6.17;;;5.57;;
15155;SDS011;7678;50.058;8.306;2023-06-26T01:47:49;7.17;;;5.23;;
15155;SDS011;7678;50.058;8.306;2023-06-26T01:50:20;6.13;;;5.37;;
15155;SDS011;7678;50.058;8.306;2023-06-26T01:52:53;6.33;;;5.30;;
15155;SDS011;7678;50.058;8.306;2023-06-26T01:55:28;5.77;;;5.10;;
15155;SDS011;7678;50.058;8.306;2023-06-26T01:58:02;7.27;;;5.57;;
15155;SDS011;7678;50.058;8.306;2023-06-26T02:00:32;6.20;;;5.60;;
15155;SDS011;7678;50.058;8.306;2023-06-26T02:03:00;6.20;;;5.50;;
15155;SDS011;7678;50.058;8.306;2023-06-26T02:05:29;6.10;;;5.50;;
15155;SDS011;7678;50.058;8.306;2023-06-26T02:07:58;8.27;;;4.70;;
15155;SDS011;7678;50.058;8.306;2023-06-26T02:10:27;8.60;;;5.30;;
15155;SDS011;7678;50.058;8.306;2023-06-26T02:12:56;5.83;;;5.07;;
15155;SDS011;7678;50.058;8.306;2023-06-26T02:15:24;6.07;;;5.47;;
15155;SDS011;7678;50.058;8.306;2023-06-26T02:17:53;6.43;;;5.77;;
15155;SDS011;7678;50.058;8.306;2023-06-26T02:20:21;7.07;;;5.50;;
15155;SDS011;7678;50.058;8.306;2023-06-26T02:22:49;6.70;;;6.00;;
15155;SDS011;7678;50.058;8.306;2023-06-26T02:25:18;7.10;;;5.50;;
15155;SDS011;7678;50.058;8.306;2023-06-26T02:27:46;6.50;;;5.60;;
15155;SDS011;7678;50.058;8.306;2023-06-26T02:30:14;6.03;;;5.43;;
15155;SDS011;7678;50.058;8.306;2023-06-26T02:32:42;7.20;;;5.90;;
15155;SDS011;7678;50.058;8.306;2023-06-26T02:35:12;5.63;;;5.13;;
15155;SDS011;7678;50.058;8.306;2023-06-26T02:37:40;7.80;;;5.67;;
15155;SDS011;7678;50.058;8.306;2023-06-26T02:40:08;5.63;;;5.13;;
15155;SDS011;7678;50.058;8.306;2023-06-26T02:42:37;5.53;;;5.03;;
15155;SDS011;7678;50.058;8.306;2023-06-26T02:45:06;5.80;;;5.20;;
15155;SDS011;7678;50.058;8.306;2023-06-26T02:47:35;5.83;;;5.27;;
15155;SDS011;7678;50.058;8.306;2023-06-26T02:50:07;5.87;;;5.37;;
15155;SDS011;7678;50.058;8.306;2023-06-26T02:52:38;6.47;;;5.73;;
15155;SDS011;7678;50.058;8.306;2023-06-26T02:55:06;8.07;;;6.00;;
15155;SDS011;7678;50.058;8.306;2023-06-26T02:57:34;6.90;;;5.80;;
15155;SDS011;7678;50.058;8.306;2023-06-26T03:00:03;8.60;;;5.70;;
15155;SDS011;7678;50.058;8.306;2023-06-26T03:02:34;6.73;;;6.07;;
15155;SDS011;7678;50.058;8.306;2023-06-26T03:05:03;9.37;;;5.87;;
15155;SDS011;7678;50.058;8.306;2023-06-26T03:07:31;7.63;;;6.20;;
15155;SDS011;7678;50.058;8.306;2023-06-26T03:10:01;7.77;;;6.03;;
15155;SDS011;7678;50.058;8.306;2023-06-26T03:12:29;6.83;;;5.37;;
15155;SDS011;7678;50.058;8.306;2023-06-26T03:14:57;6.30;;;5.57;;
15155;SDS011;7678;50.058;8.306;2023-06-26T03:17:25;7.53;;;6.00;;
15155;SDS011;7678;50.058;8.306;2023-06-26T03:19:53;5.90;;;5.40;;
15155;SDS011;7678;50.058;8.306;2023-06-26T03:22:21;6.07;;;5.57;;
15155;SDS011;7678;50.058;8.306;2023-06-26T03:24:49;6.60;;;5.57;;
15155;SDS011;7678;50.058;8.306;2023-06-26T03:27:18;6.53;;;5.70;;
15155;SDS011;7678;50.058;8.306;2023-06-26T03:29:46;7.93;;;5.77;;
15155;SDS011;7678;50.058;8.306;2023-06-26T03:32:14;8.47;;;6.13;;
15155;SDS011;7678;50.058;8.306;2023-06-26T03:34:45;6.80;;;6.20;;
15155;SDS011;7678;50.058;8.306;2023-06-26T03:37:13;6.23;;;5.63;;
15155;SDS011;7678;50.058;8.306;2023-06-26T03:39:41;6.90;;;5.93;;
15155;SDS011;7678;50.058;8.306;2023-06-26T03:42:09;10.90;;;6.53;;
15155;SDS011;7678;50.058;8.306;2023-06-26T03:44:39;6.63;;;5.40;;
15155;SDS011;7678;50.058;8.306;2023-06-26T03:47:07;7.80;;;5.97;;
15155;SDS011;7678;50.058;8.306;2023-06-26T03:49:35;9.07;;;5.80;;
15155;SDS011;7678;50.058;8.306;2023-06-26T03:52:04;10.83;;;7.13;;
15155;SDS011;7678;50.058;8.306;2023-06-26T03:54:34;7.13;;;6.00;;
15155;SDS011;7678;50.058;8.306;2023-06-26T03:57:02;10.07;;;6.37;;
15155;SDS011;7678;50.058;8.306;2023-06-26T03:59:30;6.20;;;5.60;;
15155;SDS011;7678;50.058;8.306;2023-06-26T04:02:01;7.27;;;6.30;;
15155;SDS011;7678;50.058;8.306;2023-06-26T04:04:29;6.43;;;5.60;;
15155;SDS011;7678;50.058;8.306;2023-06-26T04:06:57;7.50;;;6.27;;
15155;SDS011;7678;50.058;8.306;2023-06-26T04:09:27;7.37;;;5.80;;
15155;SDS011;7678;50.058;8.306;2023-06-26T04:11:56;7.47;;;5.90;;
15155;SDS011;7678;50.058;8.306;2023-06-26T04:14:24;7.17;;;5.83;;
15155;SDS011;7678;50.058;8.306;2023-06-26T04:16:52;7.53;;;5.70;;
15155;SDS011;7678;50.058;8.306;2023-06-26T04:19:21;7.00;;;5.87;;
15155;SDS011;7678;50.058;8.306;2023-06-26T04:21:49;7.23;;;6.20;;
15155;SDS011;7678;50.058;8.306;2023-06-26T04:24:17;7.50;;;5.90;;
15155;SDS011;7678;50.058;8.306;2023-06-26T04:26:45;9.03;;;7.17;;
15155;SDS011;7678;50.058;8.306;2023-06-26T04:29:14;7.83;;;6.60;;
15155;SDS011;7678;50.058;8.306;2023-06-26T04:31:43;9.33;;;5.90;;
15155;SDS011;7678;50.058;8.306;2023-06-26T04:34:13;6.63;;;5.57;;
15155;SDS011;7678;50.058;8.306;2023-06-26T04:36:42;6.70;;;5.97;;
15155;SDS011;7678;50.058;8.306;2023-06-26T04:39:12;9.13;;;7.17;;
15155;SDS011;7678;50.058;8.306;2023-06-26T04:41:41;6.90;;;6.23;;
15155;SDS011;7678;50.058;8.306;2023-06-26T04:44:10;7.43;;;6.20;;
15155;SDS011;7678;50.058;8.306;2023-06-26T04:46:38;7.97;;;6.20;;
15155;SDS011;7678;50.058;8.306;2023-06-26T04:49:07;7.37;;;6.13;;
15155;SDS011;7678;50.058;8.306;2023-06-26T04:51:35;9.53;;;6.37;;
15155;SDS011;7678;50.058;8.306;2023-06-26T04:54:08;7.67;;;6.23;;
15155;SDS011;7678;50.058;8.306;2023-06-26T04:56:37;7.20;;;6.50;;
15155;SDS011;7678;50.058;8.306;2023-06-26T04:59:06;8.17;;;6.37;;
15155;SDS011;7678;50.058;8.306;2023-06-26T05:01:39;9.03;;;6.63;;
15155;SDS011;7678;50.058;8.306;2023-06-26T05:04:08;7.33;;;6.13;;
15155;SDS011;7678;50.058;8.306;2023-06-26T05:06:36;6.83;;;6.07;;
15155;SDS011;7678;50.058;8.306;2023-06-26T05:09:04;11.60;;;6.60;;
15155;SDS011;7678;50.058;8.306;2023-06-26T05:11:33;10.33;;;6.63;;
15155;SDS011;7678;50.058;8.306;2023-06-26T05:14:02;9.40;;;6.00;;
15155;SDS011;7678;50.058;8.306;2023-06-26T05:16:36;9.83;;;6.87;;
15155;SDS011;7678;50.058;8.306;2023-06-26T05:19:04;9.97;;;6.43;;
15155;SDS011;7678;50.058;8.306;2023-06-26T05:21:32;7.30;;;6.13;;
15155;SDS011;7678;50.058;8.306;2023-06-26T05:24:02;8.50;;;6.77;;
15155;SDS011;7678;50.058;8.306;2023-06-26T05:26:31;7.50;;;6.23;;
15155;SDS011;7678;50.058;8.306;2023-06-26T05:29:01;6.67;;;5.87;;
15155;SDS011;7678;50.058;8.306;2023-06-26T05:31:30;8.70;;;5.93;;
15155;SDS011;7678;50.058;8.306;2023-06-26T05:34:02;6.60;;;5.50;;
15155;SDS011;7678;50.058;8.306;2023-06-26T05:36:31;8.73;;;5.83;;
15155;SDS011;7678;50.058;8.306;2023-06-26T05:39:02;9.23;;;6.63;;
15155;SDS011;7678;50.058;8.306;2023-06-26T05:41:31;7.23;;;6.20;;
15155;SDS011;7678;50.058;8.306;2023-06-26T05:44:01;6.60;;;5.90;;
15155;SDS011;7678;50.058;8.306;2023-06-26T05:46:29;9.03;;;7.03;;
15155;SDS011;7678;50.058;8.306;2023-06-26T05:48:57;10.00;;;7.27;;
15155;SDS011;7678;50.058;8.306;2023-06-26T05:51:25;15.00;;;6.63;;
15155;SDS011;7678;50.058;8.306;2023-06-26T05:53:55;15.00;;;7.80;;
15155;SDS011;7678;50.058;8.306;2023-06-26T05:56:23;14.73;;;7.27;;
15155;SDS011;7678;50.058;8.306;2023-06-26T05:58:52;19.93;;;7.37;;
15155;SDS011;7678;50.058;8.306;2023-06-26T06:01:22;13.57;;;7.47;;
15155;SDS011;7678;50.058;8.306;2023-06-26T06:03:50;14.30;;;7.40;;
15155;SDS011;7678;50.058;8.306;2023-06-26T06:06:19;12.47;;;6.63;;
15155;SDS011;7678;50.058;8.306;2023-06-26T06:08:47;12.13;;;6.87;;
15155;SDS011;7678;50.058;8.306;2023-06-26T06:11:15;14.67;;;6.97;;
15155;SDS011;7678;50.058;8.306;2023-06-26T06:13:44;16.80;;;7.10;;
15155;SDS011;7678;50.058;8.306;2023-06-26T06:16:12;10.87;;;6.23;;
15155;SDS011;7678;50.058;8.306;2023-06-26T06:18:42;9.23;;;7.40;;
15155;SDS011;7678;50.058;8.306;2023-06-26T06:21:10;12.87;;;8.10;;
15155;SDS011;7678;50.058;8.306;2023-06-26T06:23:39;19.47;;;8.97;;
15155;SDS011;7678;50.058;8.306;2023-06-26T06:26:07;22.83;;;8.70;;
15155;SDS011;7678;50.058;8.306;2023-06-26T06:28:35;19.83;;;8.27;;
15155;SDS011;7678;50.058;8.306;2023-06-26T06:31:05;30.50;;;8.80;;
15155;SDS011;7678;50.058;8.306;2023-06-26T06:33:33;28.67;;;8.03;;
15155;SDS011;7678;50.058;8.306;2023-06-26T06:36:02;30.40;;;8.27;;
15155;SDS011;7678;50.058;8.306;2023-06-26T06:38:31;24.87;;;7.90;;
15155;SDS011;7678;50.058;8.306;2023-06-26T06:40:59;25.00;;;8.00;;
15155;SDS011;7678;50.058;8.306;2023-06-26T06:43:28;19.40;;;8.03;;
15155;SDS011;7678;50.058;8.306;2023-06-26T06:45:57;25.63;;;7.90;;
15155;SDS011;7678;50.058;8.306;2023-06-26T06:48:26;20.17;;;7.57;;
15155;SDS011;7678;50.058;8.306;2023-06-26T06:50:54;19.70;;;6.93;;
15155;SDS011;7678;50.058;8.306;2023-06-26T06:53:26;24.57;;;7.53;;
15155;SDS011;7678;50.058;8.306;2023-06-26T06:55:54;29.70;;;7.43;;
15155;SDS011;7678;50.058;8.306;2023-06-26T06:58:22;25.23;;;8.07;;
15155;SDS011;7678;50.058;8.306;2023-06-26T07:00:51;24.37;;;7.77;;
15155;SDS011;7678;50.058;8.306;2023-06-26T07:03:19;25.37;;;7.80;;
15155;SDS011;7678;50.058;8.306;2023-06-26T07:05:48;26.03;;;8.03;;
15155;SDS011;7678;50.058;8.306;2023-06-26T07:08:16;21.77;;;7.87;;
15155;SDS011;7678;50.058;8.306;2023-06-26T07:10:47;13.50;;;7.33;;
15155;SDS011;7678;50.058;8.306;2023-06-26T07:13:16;17.37;;;7.57;;
15155;SDS011;7678;50.058;8.306;2023-06-26T07:15:48;19.83;;;7.60;;
15155;SDS011;7678;50.058;8.306;2023-06-26T07:18:16;21.20;;;7.20;;
15155;SDS011;7678;50.058;8.306;2023-06-26T07:20:48;21.83;;;8.00;;
15155;SDS011;7678;50.058;8.306;2023-06-26T07:23:17;15.90;;;7.13;;
15155;SDS011;7678;50.058;8.306;2023-06-26T07:25:50;10.73;;;6.10;;
15155;SDS011;7678;50.058;8.306;2023-06-26T07:28:19;9.67;;;6.30;;
15155;SDS011;7678;50.058;8.306;2023-06-26T07:30:47;9.53;;;6.10;;
15155;SDS011;7678;50.058;8.306;2023-06-26T07:33:16;12.63;;;6.50;;
15155;SDS011;7678;50.058;8.306;2023-06-26T07:35:44;9.27;;;5.80;;
15155;SDS011;7678;50.058;8.306;2023-06-26T07:38:12;16.47;;;6.77;;
15155;SDS011;7678;50.058;8.306;2023-06-26T07:40:40;10.27;;;5.83;;
15155;SDS011;7678;50.058;8.306;2023-06-26T07:43:10;10.50;;;5.83;;
15155;SDS011;7678;50.058;8.306;2023-06-26T07:45:38;9.50;;;6.07;;
15155;SDS011;7678;50.058;8.306;2023-06-26T07:48:06;11.43;;;6.00;;
15155;SDS011;7678;50.058;8.306;2023-06-26T07:50:37;7.60;;;5.73;;
15155;SDS011;7678;50.058;8.306;2023-06-26T07:53:06;11.40;;;6.10;;
15155;SDS011;7678;50.058;8.306;2023-06-26T07:55:34;19.80;;;6.87;;
15155;SDS011;7678;50.058;8.306;2023-06-26T07:58:02;13.90;;;6.27;;
15155;SDS011;7678;50.058;8.306;2023-06-26T08:00:32;13.73;;;6.30;;
15155;SDS011;7678;50.058;8.306;2023-06-26T08:03:00;8.03;;;6.23;;
15155;SDS011;7678;50.058;8.306;2023-06-26T08:05:29;10.67;;;6.40;;
15155;SDS011;7678;50.058;8.306;2023-06-26T08:08:00;20.23;;;6.90;;
15155;SDS011;7678;50.058;8.306;2023-06-26T08:10:29;18.07;;;7.07;;
15155;SDS011;7678;50.058;8.306;2023-06-26T08:12:57;11.60;;;6.10;;
15155;SDS011;7678;50.058;8.306;2023-06-26T08:15:27;15.03;;;6.37;;
15155;SDS011;7678;50.058;8.306;2023-06-26T08:17:57;6.97;;;5.53;;
15155;SDS011;7678;50.058;8.306;2023-06-26T08:20:27;9.40;;;6.50;;
15155;SDS011;7678;50.058;8.306;2023-06-26T08:23:05;7.33;;;5.30;;
15155;SDS011;7678;50.058;8.306;2023-06-26T08:25:36;9.33;;;5.37;;
15155;SDS011;7678;50.058;8.306;2023-06-26T08:28:13;10.03;;;5.53;;
15155;SDS011;7678;50.058;8.306;2023-06-26T08:30:45;8.23;;;5.63;;
15155;SDS011;7678;50.058;8.306;2023-06-26T08:33:15;13.57;;;5.67;;
15155;SDS011;7678;50.058;8.306;2023-06-26T08:35:43;10.50;;;5.70;;
15155;SDS011;7678;50.058;8.306;2023-06-26T08:38:11;7.30;;;5.40;;
15155;SDS011;7678;50.058;8.306;2023-06-26T08:40:39;7.07;;;6.23;;
15155;SDS011;7678;50.058;8.306;2023-06-26T08:43:07;9.27;;;6.20;;
15155;SDS011;7678;50.058;8.306;2023-06-26T08:45:43;6.53;;;4.97;;
15155;SDS011;7678;50.058;8.306;2023-06-26T08:48:12;8.80;;;5.43;;
15155;SDS011;7678;50.058;8.306;2023-06-26T08:50:42;6.00;;;5.30;;
15155;SDS011;7678;50.058;8.306;2023-06-26T08:53:20;6.27;;;5.67;;
15155;SDS011;7678;50.058;8.306;2023-06-26T08:55:57;8.80;;;5.37;;
15155;SDS011;7678;50.058;8.306;2023-06-26T08:58:27;9.13;;;5.87;;
15155;SDS011;7678;50.058;8.306;2023-06-26T09:00:58;11.00;;;6.17;;
15155;SDS011;7678;50.058;8.306;2023-06-26T09:03:29;10.30;;;5.30;;
15155;SDS011;7678;50.058;8.306;2023-06-26T09:05:59;8.47;;;5.30;;
15155;SDS011;7678;50.058;8.306;2023-06-26T09:08:27;8.13;;;5.63;;
15155;SDS011;7678;50.058;8.306;2023-06-26T09:10:56;8.47;;;5.83;;
15155;SDS011;7678;50.058;8.306;2023-06-26T09:13:27;5.87;;;5.30;;
15155;SDS011;7678;50.058;8.306;2023-06-26T09:15:57;8.80;;;5.30;;
15155;SDS011;7678;50.058;8.306;2023-06-26T09:18:26;6.83;;;4.93;;
15155;SDS011;7678;50.058;8.306;2023-06-26T09:20:57;5.47;;;4.97;;
15155;SDS011;7678;50.058;8.306;2023-06-26T09:23:26;5.60;;;5.03;;
15155;SDS011;7678;50.058;8.306;2023-06-26T09:25:54;12.77;;;5.03;;
15155;SDS011;7678;50.058;8.306;2023-06-26T09:28:22;5.93;;;4.90;;
15155;SDS011;7678;50.058;8.306;2023-06-26T09:30:51;4.57;;;4.17;;
15155;SDS011;7678;50.058;8.306;2023-06-26T09:33:19;6.53;;;4.40;;
15155;SDS011;7678;50.058;8.306;2023-06-26T09:35:49;7.50;;;4.90;;
15155;SDS011;7678;50.058;8.306;2023-06-26T09:38:22;6.10;;;4.87;;
15155;SDS011;7678;50.058;8.306;2023-06-26T09:40:51;5.57;;;4.20;;
15155;SDS011;7678;50.058;8.306;2023-06-26T09:43:19;6.90;;;4.40;;
15155;SDS011;7678;50.058;8.306;2023-06-26T09:45:47;8.30;;;5.20;;
15155;SDS011;7678;50.058;8.306;2023-06-26T09:48:15;7.53;;;4.67;;
15155;SDS011;7678;50.058;8.306;2023-06-26T09:50:45;5.27;;;4.63;;
15155;SDS011;7678;50.058;8.306;2023-06-26T09:53:28;6.77;;;4.53;;
15155;SDS011;7678;50.058;8.306;2023-06-26T09:55:59;6.57;;;4.47;;
15155;SDS011;7678;50.058;8.306;2023-06-26T09:58:45;4.47;;;4.07;;
15155;SDS011;7678;50.058;8.306;2023-06-26T10:01:13;5.20;;;4.70;;
15155;SDS011;7678;50.058;8.306;2023-06-26T10:03:42;6.30;;;4.47;;
15155;SDS011;7678;50.058;8.306;2023-06-26T10:06:11;4.90;;;4.50;;
15155;SDS011;7678;50.058;8.306;2023-06-26T10:08:41;4.73;;;4.20;;
15155;SDS011;7678;50.058;8.306;2023-06-26T10:11:14;5.47;;;4.37;;
15155;SDS011;7678;50.058;8.306;2023-06-26T10:13:47;6.33;;;4.33;;
15155;SDS011;7678;50.058;8.306;2023-06-26T10:16:18;8.17;;;4.70;;
15155;SDS011;7678;50.058;8.306;2023-06-26T10:18:51;4.87;;;4.33;;
15155;SDS011;7678;50.058;8.306;2023-06-26T10:21:20;8.67;;;4.93;;
15155;SDS011;7678;50.058;8.306;2023-06-26T10:23:52;6.13;;;5.10;;
15155;SDS011;7678;50.058;8.306;2023-06-26T10:26:22;6.20;;;4.73;;
15155;SDS011;7678;50.058;8.306;2023-06-26T10:28:53;6.70;;;5.10;;
15155;SDS011;7678;50.058;8.306;2023-06-26T10:31:25;6.28;;;4.70;;
15155;SDS011;7678;50.058;8.306;2023-06-26T10:33:59;6.97;;;4.93;;
15155;SDS011;7678;50.058;8.306;2023-06-26T10:36:29;9.07;;;5.10;;
15155;SDS011;7678;50.058;8.306;2023-06-26T10:39:01;7.50;;;5.10;;
15155;SDS011;7678;50.058;8.306;2023-06-26T10:41:36;5.83;;;5.10;;
15155;SDS011;7678;50.058;8.306;2023-06-26T10:44:15;7.73;;;5.27;;
15155;SDS011;7678;50.058;8.306;2023-06-26T10:46:48;6.30;;;5.13;;
15155;SDS011;7678;50.058;8.306;2023-06-26T10:49:19;5.80;;;4.90;;
15155;SDS011;7678;50.058;8.306;2023-06-26T10:51:52;6.17;;;4.53;;
15155;SDS011;7678;50.058;8.306;2023-06-26T10:54:27;11.03;;;5.33;;
15155;SDS011;7678;50.058;8.306;2023-06-26T10:56:58;6.27;;;5.20;;
15155;SDS011;7678;50.058;8.306;2023-06-26T10:59:28;7.57;;;5.20;;
15155;SDS011;7678;50.058;8.306;2023-06-26T11:02:00;10.37;;;5.83;;
15155;SDS011;7678;50.058;8.306;2023-06-26T11:04:37;6.77;;;5.43;;
15155;SDS011;7678;50.058;8.306;2023-06-26T11:07:14;5.90;;;5.30;;
15155;SDS011;7678;50.058;8.306;2023-06-26T11:09:56;5.80;;;5.00;;
15155;SDS011;7678;50.058;8.306;2023-06-26T11:12:35;5.78;;;5.20;;
15155;SDS011;7678;50.058;8.306;2023-06-26T11:15:07;6.57;;;5.10;;
15155;SDS011;7678;50.058;8.306;2023-06-26T11:17:44;5.70;;;5.10;;
15155;SDS011;7678;50.058;8.306;2023-06-26T11:20:15;5.80;;;5.20;;
15155;SDS011;7678;50.058;8.306;2023-06-26T11:22:52;5.87;;;5.10;;
15155;SDS011;7678;50.058;8.306;2023-06-26T11:25:25;6.10;;;4.68;;
15155;SDS011;7678;50.058;8.306;2023-06-26T11:27:55;5.30;;;4.40;;
15155;SDS011;7678;50.058;8.306;2023-06-26T11:30:24;6.43;;;4.80;;
15155;SDS011;7678;50.058;8.306;2023-06-26T11:33:01;6.32;;;5.00;;
15155;SDS011;7678;50.058;8.306;2023-06-26T11:35:31;6.53;;;5.05;;
15155;SDS011;7678;50.058;8.306;2023-06-26T11:38:00;7.35;;;4.90;;
15155;SDS011;7678;50.058;8.306;2023-06-26T11:40:34;5.72;;;5.20;;
15155;SDS011;7678;50.058;8.306;2023-06-26T11:43:06;6.70;;;5.10;;
15155;SDS011;7678;50.058;8.306;2023-06-26T11:45:35;7.38;;;5.30;;
15155;SDS011;7678;50.058;8.306;2023-06-26T11:48:05;6.75;;;4.97;;
15155;SDS011;7678;50.058;8.306;2023-06-26T11:50:39;6.82;;;5.10;;
15155;SDS011;7678;50.058;8.306;2023-06-26T11:53:14;7.03;;;5.00;;
15155;SDS011;7678;50.058;8.306;2023-06-26T11:55:45;7.30;;;5.32;;
15155;SDS011;7678;50.058;8.306;2023-06-26T11:58:13;7.95;;;5.53;;
15155;SDS011;7678;50.058;8.306;2023-06-26T12:00:41;5.45;;;4.95;;
15155;SDS011;7678;50.058;8.306;2023-06-26T12:03:10;5.72;;;5.10;;
15155;SDS011;7678;50.058;8.306;2023-06-26T12:05:39;6.95;;;5.38;;
15155;SDS011;7678;50.058;8.306;2023-06-26T12:08:11;6.90;;;5.03;;
15155;SDS011;7678;50.058;8.306;2023-06-26T12:10:40;6.00;;;5.07;;
15155;SDS011;7678;50.058;8.306;2023-06-26T12:13:10;8.80;;;5.77;;
15155;SDS011;7678;50.058;8.306;2023-06-26T12:15:38;6.27;;;4.97;;
15155;SDS011;7678;50.058;8.306;2023-06-26T12:18:13;8.50;;;5.07;;
15155;SDS011;7678;50.058;8.306;2023-06-26T12:20:41;5.53;;;4.93;;
15155;SDS011;7678;50.058;8.306;2023-06-26T12:23:13;6.30;;;4.70;;
15155;SDS011;7678;50.058;8.306;2023-06-26T12:25:41;9.33;;;5.07;;
15155;SDS011;7678;50.058;8.306;2023-06-26T12:28:18;9.33;;;4.80;;
15155;SDS011;7678;50.058;8.306;2023-06-26T12:30:47;6.97;;;4.67;;
15155;SDS011;7678;50.058;8.306;2023-06-26T12:33:36;5.77;;;4.10;;
15155;SDS011;7678;50.058;8.306;2023-06-26T12:36:23;4.83;;;4.33;;
15155;SDS011;7678;50.058;8.306;2023-06-26T12:38:52;8.13;;;4.50;;
15155;SDS011;7678;50.058;8.306;2023-06-26T12:41:23;12.20;;;4.80;;
15155;SDS011;7678;50.058;8.306;2023-06-26T12:43:56;5.85;;;4.40;;
15155;SDS011;7678;50.058;8.306;2023-06-26T12:46:32;5.70;;;4.53;;
15155;SDS011;7678;50.058;8.306;2023-06-26T12:49:02;12.20;;;4.78;;
15155;SDS011;7678;50.058;8.306;2023-06-26T12:51:47;8.53;;;4.00;;
15155;SDS011;7678;50.058;8.306;2023-06-26T12:54:16;7.90;;;4.85;;
15155;SDS011;7678;50.058;8.306;2023-06-26T12:56:44;7.38;;;3.72;;
15155;SDS011;7678;50.058;8.306;2023-06-26T12:59:15;4.55;;;3.80;;
15155;SDS011;7678;50.058;8.306;2023-06-26T13:01:43;8.33;;;4.20;;
15155;SDS011;7678;50.058;8.306;2023-06-26T13:04:12;6.50;;;3.87;;
15155;SDS011;7678;50.058;8.306;2023-06-26T13:06:40;5.63;;;3.63;;
15155;SDS011;7678;50.058;8.306;2023-06-26T13:09:09;6.00;;;3.87;;
15155;SDS011;7678;50.058;8.306;2023-06-26T13:11:38;6.27;;;3.70;;
15155;SDS011;7678;50.058;8.306;2023-06-26T13:14:07;6.70;;;3.73;;
15155;SDS011;7678;50.058;8.306;2023-06-26T13:16:39;5.55;;;3.72;;
15155;SDS011;7678;50.058;8.306;2023-06-26T13:19:07;7.55;;;3.83;;
15155;SDS011;7678;50.058;8.306;2023-06-26T13:21:37;7.95;;;3.72;;
15155;SDS011;7678;50.058;8.306;2023-06-26T13:24:08;5.85;;;3.67;;
15155;SDS011;7678;50.058;8.306;2023-06-26T13:26:37;7.45;;;3.53;;
15155;SDS011;7678;50.058;8.306;2023-06-26T13:29:07;5.93;;;3.40;;
15155;SDS011;7678;50.058;8.306;2023-06-26T13:31:39;7.53;;;3.20;;
15155;SDS011;7678;50.058;8.306;2023-06-26T13:34:08;6.80;;;3.27;;
15155;SDS011;7678;50.058;8.306;2023-06-26T13:36:36;5.10;;;2.93;;
15155;SDS011;7678;50.058;8.306;2023-06-26T13:39:04;8.37;;;3.30;;
15155;SDS011;7678;50.058;8.306;2023-06-26T13:41:34;7.40;;;3.37;;
15155;SDS011;7678;50.058;8.306;2023-06-26T13:44:03;9.90;;;3.50;;
15155;SDS011;7678;50.058;8.306;2023-06-26T13:46:53;6.60;;;3.40;;
15155;SDS011;7678;50.058;8.306;2023-06-26T13:49:22;4.83;;;2.80;;
15155;SDS011;7678;50.058;8.306;2023-06-26T13:51:50;4.03;;;2.93;;
15155;SDS011;7678;50.058;8.306;2023-06-26T13:54:18;7.40;;;2.87;;
15155;SDS011;7678;50.058;8.306;2023-06-26T13:56:47;4.23;;;2.50;;
15155;SDS011;7678;50.058;8.306;2023-06-26T13:59:15;5.87;;;3.20;;
15155;SDS011;7678;50.058;8.306;2023-06-26T14:01:47;6.60;;;2.63;;
15155;SDS011;7678;50.058;8.306;2023-06-26T14:04:17;6.30;;;2.83;;
15155;SDS011;7678;50.058;8.306;2023-06-26T14:06:46;5.70;;;2.57;;
15155;SDS011;7678;50.058;8.306;2023-06-26T14:09:14;7.40;;;2.70;;
15155;SDS011;7678;50.058;8.306;2023-06-26T14:11:44;6.60;;;2.80;;
15155;SDS011;7678;50.058;8.306;2023-06-26T14:14:12;8.83;;;3.03;;
15155;SDS011;7678;50.058;8.306;2023-06-26T14:16:41;3.87;;;2.60;;
15155;SDS011;7678;50.058;8.306;2023-06-26T14:19:10;7.53;;;2.43;;
15155;SDS011;7678;50.058;8.306;2023-06-26T14:21:42;4.83;;;2.50;;
15155;SDS011;7678;50.058;8.306;2023-06-26T14:24:12;4.10;;;2.10;;
15155;SDS011;7678;50.058;8.306;2023-06-26T14:26:41;5.47;;;2.30;;
15155;SDS011;7678;50.058;8.306;2023-06-26T14:29:10;5.33;;;2.50;;
15155;SDS011;7678;50.058;8.306;2023-06-26T14:31:41;4.53;;;2.10;;
15155;SDS011;7678;50.058;8.306;2023-06-26T14:34:09;5.43;;;2.20;;
15155;SDS011;7678;50.058;8.306;2023-06-26T14:36:39;5.07;;;2.13;;
15155;SDS011;7678;50.058;8.306;2023-06-26T14:39:09;5.07;;;2.20;;
15155;SDS011;7678;50.058;8.306;2023-06-26T14:41:38;5.27;;;2.60;;
15155;SDS011;7678;50.058;8.306;2023-06-26T14:44:08;7.73;;;2.50;;
15155;SDS011;7678;50.058;8.306;2023-06-26T14:46:38;8.77;;;2.20;;
15155;SDS011;7678;50.058;8.306;2023-06-26T14:49:06;6.27;;;2.17;;
15155;SDS011;7678;50.058;8.306;2023-06-26T14:51:35;4.70;;;2.30;;
15155;SDS011;7678;50.058;8.306;2023-06-26T14:54:08;5.43;;;2.00;;
15155;SDS011;7678;50.058;8.306;2023-06-26T14:56:38;6.17;;;2.70;;
15155;SDS011;7678;50.058;8.306;2023-06-26T14:59:07;3.77;;;2.03;;
15155;SDS011;7678;50.058;8.306;2023-06-26T15:01:36;5.33;;;2.43;;
15155;SDS011;7678;50.058;8.306;2023-06-26T15:04:05;6.07;;;1.90;;
15155;SDS011;7678;50.058;8.306;2023-06-26T15:06:35;2.93;;;2.00;;
15155;SDS011;7678;50.058;8.306;2023-06-26T15:09:06;7.00;;;1.73;;
15155;SDS011;7678;50.058;8.306;2023-06-26T15:11:36;7.80;;;2.23;;
15155;SDS011;7678;50.058;8.306;2023-06-26T15:14:05;4.90;;;1.67;;